createdAt,value
2017-03-01T10:20:59.590Z,12.29
2017-03-01T10:21:40.069Z,11.17
2017-03-01T10:22:20.532Z,10.37
2017-03-01T10:23:01.024Z,9.94
2017-03-01T10:23:41.505Z,9.79
2017-03-01T10:24:21.997Z,9.68
2017-03-01T10:25:02.468Z,9.6
2017-03-01T10:25:42.921Z,9.71
2017-03-01T10:27:40.631Z,9.61
2017-03-01T10:28:21.047Z,9.85
2017-03-01T10:29:01.572Z,9.39
2017-03-01T10:29:42.056Z,9.75
2017-03-01T10:30:22.559Z,10.88
2017-03-01T10:31:03.009Z,11.77
2017-03-01T10:31:43.470Z,11.93
2017-03-01T10:32:23.946Z,11.87
2017-03-01T10:33:04.389Z,11.46
2017-03-01T10:33:44.826Z,11.57
2017-03-01T10:34:25.338Z,11.57
2017-03-01T10:35:05.755Z,11.7
2017-03-01T10:35:46.224Z,11.7
2017-03-01T10:37:59.087Z,10.98
2017-03-01T10:38:39.416Z,10.98
2017-03-01T10:39:20.221Z,10.74
2017-03-01T10:40:00.671Z,10.55
2017-03-01T10:40:41.109Z,10.43
2017-03-01T10:41:21.552Z,10.51
2017-03-01T10:42:02.018Z,10.36
2017-03-01T10:42:42.479Z,10.55
2017-03-01T10:43:22.978Z,10.46
2017-03-01T10:45:20.630Z,10.55
2017-03-01T10:46:01.111Z,10.71
2017-03-01T10:46:41.580Z,10.86
2017-03-01T10:47:22.060Z,10.91
2017-03-01T10:48:02.459Z,10.98
2017-03-01T10:48:42.933Z,11.07
2017-03-01T10:49:23.407Z,11.03
2017-03-01T10:50:03.854Z,11.01
2017-03-01T10:50:44.324Z,10.89
2017-03-01T10:51:24.793Z,11.01
2017-03-01T10:52:05.230Z,10.89
2017-03-01T10:52:45.645Z,11.03
2017-03-01T10:53:26.161Z,10.99
2017-03-01T10:54:06.704Z,10.94
2017-03-01T10:54:47.144Z,10.98
2017-03-01T10:55:27.702Z,11.2
2017-03-01T10:56:08.133Z,11.13
2017-03-01T10:56:48.581Z,11.1
2017-03-01T10:57:29.042Z,11.29
2017-03-01T10:58:09.517Z,11.27
2017-03-01T10:58:49.917Z,11.14
2017-03-01T10:59:30.378Z,11.31
2017-03-01T11:00:10.871Z,11.39
2017-03-01T11:00:51.301Z,11.41
2017-03-01T11:01:31.723Z,11.02
2017-03-01T11:02:12.215Z,10.77
2017-03-01T11:02:52.684Z,10.62
2017-03-01T11:03:33.094Z,10.47
2017-03-01T11:04:13.587Z,10.55
2017-03-01T11:04:54.056Z,10.73
2017-03-01T11:05:34.466Z,10.6
2017-03-01T11:06:14.984Z,10.74
2017-03-01T11:06:55.419Z,11.03
2017-03-01T11:07:35.891Z,11.2
2017-03-01T11:08:16.353Z,11.38
2017-03-01T11:08:56.800Z,11.46
2017-03-01T11:09:37.277Z,11.52
2017-03-01T11:10:17.761Z,11.49
2017-03-01T11:10:58.263Z,11.43
2017-03-01T11:11:38.880Z,11.39
2017-03-01T11:12:19.382Z,11.43
2017-03-01T11:12:59.821Z,11.19
2017-03-01T11:13:40.306Z,11.28
2017-03-01T11:14:20.758Z,11.29
2017-03-01T11:15:01.222Z,11.36
2017-03-01T11:15:41.686Z,11.39
2017-03-01T11:16:22.156Z,11.29
2017-03-01T11:17:02.596Z,11.16
2017-03-01T11:17:43.095Z,10.62
2017-03-01T11:18:23.590Z,10.53
2017-03-01T11:19:04.069Z,10.44
2017-03-01T11:19:44.551Z,10.14
2017-03-01T11:20:25.039Z,9.97
2017-03-01T11:21:05.531Z,10
2017-03-01T11:21:46.011Z,9.82
2017-03-01T11:22:26.445Z,9.75
2017-03-01T11:23:06.899Z,9.61
2017-03-01T11:23:47.311Z,9.53
2017-03-01T11:24:27.758Z,9.58
2017-03-01T11:25:08.136Z,9.66
2017-03-01T11:25:48.588Z,9.53
2017-03-01T11:26:28.997Z,9.43
2017-03-01T11:27:09.417Z,9.48
2017-03-01T11:27:49.826Z,9.64
2017-03-01T11:28:30.267Z,9.6
2017-03-01T11:29:10.749Z,9.61
2017-03-01T11:29:51.205Z,9.66
2017-03-01T11:30:31.634Z,9.67
2017-03-01T11:31:12.112Z,9.78
2017-03-01T11:31:52.554Z,10.03
2017-03-01T11:32:33.017Z,10.06
2017-03-01T11:33:13.503Z,10.18
2017-03-01T11:33:53.988Z,10.03
2017-03-01T11:34:34.498Z,9.86
2017-03-01T11:35:15.013Z,9.76
2017-03-01T11:35:55.519Z,9.53
2017-03-01T11:36:36.044Z,9.42
2017-03-01T11:37:16.608Z,9.4
2017-03-01T11:39:14.217Z,9.63
2017-03-01T11:39:54.706Z,9.64
2017-03-01T11:40:35.178Z,9.48
2017-03-01T11:41:15.676Z,9.63
2017-03-01T11:41:56.139Z,9.64
2017-03-01T11:42:36.621Z,9.67
2017-03-01T11:43:17.325Z,9.81
2017-03-01T11:43:57.832Z,9.93
2017-03-01T11:44:38.306Z,10.14
2017-03-01T11:45:18.791Z,10.51
2017-03-01T11:45:59.280Z,10.88
2017-03-01T11:46:39.749Z,11.01
2017-03-01T11:47:20.267Z,10.73
2017-03-01T11:48:00.777Z,10.7
2017-03-01T11:48:41.244Z,10.4
2017-03-01T11:49:21.735Z,10.39
2017-03-01T11:50:02.229Z,10.36
2017-03-01T11:50:42.696Z,10.36
2017-03-01T11:51:23.196Z,10.37
2017-03-01T11:52:03.680Z,10.19
2017-03-01T11:52:44.171Z,10.39
2017-03-01T11:53:24.644Z,10.39
2017-03-01T11:54:05.094Z,10.39
2017-03-01T11:54:45.565Z,10.71
2017-03-01T11:55:26.060Z,10.91
2017-03-01T11:56:06.543Z,11.09
2017-03-01T11:56:47.044Z,11.2
2017-03-01T11:57:27.512Z,11.29
2017-03-01T11:58:07.996Z,11.29
2017-03-01T11:58:48.474Z,11.59
2017-03-01T11:59:28.986Z,12.38
2017-03-01T12:00:09.472Z,13.33
2017-03-01T12:00:49.976Z,13.74
2017-03-01T12:01:30.502Z,14.16
2017-03-01T12:02:11.005Z,13.67
2017-03-01T12:02:51.490Z,14.28
2017-03-01T12:03:31.997Z,14.35
2017-03-01T12:04:12.480Z,14.1
2017-03-01T12:04:52.988Z,13.32
2017-03-01T12:05:33.463Z,13.51
2017-03-01T12:06:13.953Z,13.61
2017-03-01T12:06:54.452Z,13.62
2017-03-01T12:07:34.949Z,13.81
2017-03-01T12:08:15.463Z,13.56
2017-03-01T12:08:55.943Z,12.77
2017-03-01T12:09:36.411Z,12.93
2017-03-01T12:10:16.895Z,13.25
2017-03-01T12:10:57.404Z,13.4
2017-03-01T12:11:37.881Z,13.04
2017-03-01T12:12:18.359Z,12.49
2017-03-01T12:12:58.840Z,11.94
2017-03-01T12:13:39.335Z,11.87
2017-03-01T12:14:19.834Z,11.96
2017-03-01T12:15:00.330Z,11.96
2017-03-01T12:15:40.801Z,11.44
2017-03-01T12:16:21.310Z,11.46
2017-03-01T12:17:01.861Z,11.46
2017-03-01T12:17:42.336Z,11.71
2017-03-01T12:18:22.850Z,11.8
2017-03-01T12:19:03.316Z,11.47
2017-03-01T12:19:43.819Z,11.16
2017-03-01T12:20:24.301Z,10.95
2017-03-01T12:21:04.777Z,10.6
2017-03-01T12:21:45.247Z,10.7
2017-03-01T12:22:25.735Z,10.74
2017-03-01T12:23:06.239Z,10.74
2017-03-01T12:23:46.725Z,10.46
2017-03-01T12:24:27.210Z,10.65
2017-03-01T12:25:07.655Z,10.73
2017-03-01T12:25:48.112Z,10.73
2017-03-01T12:26:28.588Z,10.83
2017-03-01T12:27:09.087Z,10.68
2017-03-01T12:27:50.517Z,10.55
2017-03-01T12:28:31.023Z,10.6
2017-03-01T12:29:11.537Z,10.4
2017-03-01T12:29:52.042Z,10.1
2017-03-01T12:30:32.497Z,10.22
2017-03-01T12:31:12.968Z,9.99
2017-03-01T12:31:53.484Z,9.94
2017-03-01T12:32:33.980Z,9.86
2017-03-01T12:33:14.417Z,9.88
2017-03-01T12:33:54.842Z,10.03
2017-03-01T12:35:42.283Z,10.19
2017-03-01T12:36:22.734Z,10.26
2017-03-01T12:37:03.205Z,10.46
2017-03-01T12:37:43.686Z,10.24
2017-03-01T12:38:24.170Z,10.4
2017-03-01T12:39:04.653Z,10.46
2017-03-01T12:39:45.151Z,10.44
2017-03-01T12:40:25.674Z,10.4
2017-03-01T12:41:06.160Z,10.52
2017-03-01T12:41:46.659Z,10.56
2017-03-01T12:42:27.108Z,10.44
2017-03-01T12:43:08.527Z,10.42
2017-03-01T12:43:49.006Z,10.42
2017-03-01T12:44:29.527Z,10.39
2017-03-01T12:45:10.011Z,10.34
2017-03-01T12:45:50.449Z,10.34
2017-03-01T12:46:30.924Z,10.51
2017-03-01T12:47:11.410Z,10.59
2017-03-01T12:47:51.893Z,10.52
2017-03-01T12:48:32.401Z,10.43
2017-03-01T12:49:12.885Z,10.4
2017-03-01T12:49:53.343Z,10.25
2017-03-01T12:50:33.809Z,10.36
2017-03-01T12:51:14.258Z,10.44
2017-03-01T12:51:54.716Z,10.44
2017-03-01T12:52:35.200Z,10.46
2017-03-01T12:53:15.681Z,10.68
2017-03-01T12:53:56.153Z,10.74
2017-03-01T12:54:36.631Z,10.81
2017-03-01T12:55:17.082Z,10.77
2017-03-01T12:55:57.572Z,10.77
2017-03-01T12:56:38.041Z,10.58
2017-03-01T12:57:18.535Z,10.47
2017-03-01T12:57:59.020Z,10.44
2017-03-01T12:58:39.461Z,10.43
2017-03-01T12:59:19.935Z,10.6
2017-03-01T13:00:00.422Z,10.55
2017-03-01T13:00:40.856Z,10.6
2017-03-01T13:01:21.356Z,10.56
2017-03-01T13:02:01.866Z,10.63
2017-03-01T13:02:42.321Z,10.36
2017-03-01T13:04:19.791Z,10.76
2017-03-01T13:05:00.200Z,10.74
2017-03-01T13:05:40.678Z,10.6
2017-03-01T13:06:21.130Z,10.65
2017-03-01T13:07:01.609Z,10.43
2017-03-01T13:07:42.127Z,10.42
2017-03-01T13:08:22.571Z,10.4
2017-03-01T13:09:03.081Z,10.43
2017-03-01T13:09:43.502Z,10.46
2017-03-01T13:11:36.018Z,10.58
2017-03-01T13:12:16.432Z,10.52
2017-03-01T13:12:56.902Z,10.44
2017-03-01T13:13:37.273Z,10.32
2017-03-01T13:14:17.686Z,10.39
2017-03-01T13:14:58.089Z,10.43
2017-03-01T13:15:38.516Z,10.46
2017-03-01T13:16:18.919Z,10.44
2017-03-01T13:16:59.345Z,10.36
2017-03-01T13:17:39.760Z,10.26
2017-03-01T13:18:20.195Z,10.33
2017-03-01T13:19:00.647Z,10.26
2017-03-01T13:20:48.066Z,10.14
2017-03-01T13:21:28.491Z,10.24
2017-03-01T13:22:08.917Z,10.22
2017-03-01T13:22:49.384Z,10.33
2017-03-01T13:23:29.866Z,10.36
2017-03-01T13:24:10.269Z,10.24
2017-03-01T13:24:50.729Z,10.36
2017-03-01T13:25:31.151Z,10.39
2017-03-01T13:26:11.591Z,10.33
2017-03-01T13:26:51.993Z,10.34
2017-03-01T13:27:32.437Z,10.28
2017-03-01T13:28:12.867Z,10.3
2017-03-01T13:28:53.303Z,10.32
2017-03-01T13:29:33.695Z,10.39
2017-03-01T13:30:14.075Z,10.44
2017-03-01T13:30:54.487Z,10.33
2017-03-01T13:31:34.903Z,10.34
2017-03-01T13:32:15.292Z,10.36
2017-03-01T13:32:55.713Z,10.4
2017-03-01T13:34:53.361Z,10.7
2017-03-01T13:35:33.704Z,10.91
2017-03-01T13:36:14.128Z,10.68
2017-03-01T13:36:54.559Z,10.99
2017-03-01T13:37:35.020Z,11.35
2017-03-01T13:38:15.488Z,11.74
2017-03-01T13:38:55.939Z,11.14
2017-03-01T13:39:36.393Z,10.95
2017-03-01T13:40:16.834Z,10.88
2017-03-01T13:40:58.176Z,10.86
2017-03-01T13:41:38.627Z,10.89
2017-03-01T13:42:19.055Z,10.88
2017-03-01T13:42:59.572Z,10.96
2017-03-01T13:43:40.065Z,10.66
2017-03-01T13:44:20.529Z,10.84
2017-03-01T13:45:00.987Z,10.95
2017-03-01T13:45:41.422Z,11.02
2017-03-01T13:46:21.871Z,11.03
2017-03-01T13:47:02.324Z,10.99
2017-03-01T13:47:42.759Z,11.16
2017-03-01T13:48:23.221Z,11.11
2017-03-01T13:49:03.643Z,11.24
2017-03-01T13:49:44.073Z,11.29
2017-03-01T13:50:24.508Z,11.46
2017-03-01T13:51:04.949Z,11.43
2017-03-01T13:51:45.405Z,11.34
2017-03-01T13:52:25.849Z,11.11
2017-03-01T13:53:06.304Z,11.01
2017-03-01T13:53:46.722Z,11.03
2017-03-01T13:54:27.191Z,10.8
2017-03-01T13:55:07.621Z,10.89
2017-03-01T13:55:47.989Z,10.81
2017-03-01T13:56:28.420Z,10.98
2017-03-01T13:57:08.866Z,10.8
2017-03-01T13:57:49.336Z,10.92
2017-03-01T13:58:29.788Z,10.91
2017-03-01T13:59:10.225Z,10.92
2017-03-01T13:59:50.665Z,10.81
2017-03-01T14:00:31.149Z,10.63
2017-03-01T14:01:11.637Z,10.77
2017-03-01T14:01:52.097Z,10.77
2017-03-01T14:02:32.539Z,10.8
2017-03-01T14:03:13.001Z,10.59
2017-03-01T14:03:53.448Z,10.62
2017-03-01T14:04:33.907Z,10.55
2017-03-01T14:05:14.346Z,10.59
2017-03-01T14:05:54.826Z,10.44
2017-03-01T14:06:35.262Z,10.53
2017-03-01T14:07:15.722Z,10.44
2017-03-01T14:07:56.157Z,10.44
2017-03-01T14:08:36.602Z,10.47
2017-03-01T14:09:17.027Z,10.37
2017-03-01T14:09:57.442Z,10.43
2017-03-01T14:10:37.864Z,10.42
2017-03-01T14:11:18.292Z,10.4
2017-03-01T14:11:58.704Z,10.46
2017-03-01T14:12:39.124Z,10.43
2017-03-01T14:13:19.533Z,10.44
2017-03-01T14:13:59.976Z,10.51
2017-03-01T14:14:40.437Z,10.47
2017-03-01T14:15:20.898Z,10.32
2017-03-01T14:16:01.348Z,10.44
2017-03-01T14:16:41.799Z,10.36
2017-03-01T14:17:22.236Z,10.39
2017-03-01T14:18:02.668Z,10.39
2017-03-01T14:18:43.152Z,10.44
2017-03-01T14:19:23.650Z,10.4
2017-03-01T14:20:04.147Z,10.36
2017-03-01T14:20:44.601Z,10.28
2017-03-01T14:21:25.010Z,10.22
2017-03-01T14:22:05.468Z,10.19
2017-03-01T14:22:45.930Z,10.26
2017-03-01T14:23:26.413Z,10.1
2017-03-01T14:24:06.868Z,10.14
2017-03-01T14:24:47.305Z,10.15
2017-03-01T14:25:27.738Z,10.03
2017-03-01T14:26:08.178Z,10.07
2017-03-01T14:26:48.622Z,10.14
2017-03-01T14:27:29.067Z,9.94
2017-03-01T14:28:09.492Z,9.99
2017-03-01T14:28:49.915Z,9.97
2017-03-01T14:29:30.389Z,10.06
2017-03-01T14:30:10.839Z,9.79
2017-03-01T14:30:51.295Z,9.71
2017-03-01T14:31:31.702Z,9.82
2017-03-01T14:32:12.149Z,9.81
2017-03-01T14:32:52.606Z,9.71
2017-03-01T14:33:33.052Z,9.56
2017-03-01T14:34:13.462Z,9.58
2017-03-01T14:34:54.687Z,9.52
2017-03-01T14:35:35.082Z,9.56
2017-03-01T14:36:15.504Z,9.49
2017-03-01T14:36:55.935Z,9.49
2017-03-01T14:37:36.350Z,9.57
2017-03-01T14:38:16.757Z,9.56
2017-03-01T14:38:57.157Z,9.6
2017-03-01T14:39:37.597Z,9.52
2017-03-01T14:40:18.003Z,9.56
2017-03-01T14:40:58.392Z,9.43
2017-03-01T14:41:38.808Z,9.39
2017-03-01T14:42:19.194Z,9.4
2017-03-01T14:42:59.634Z,9.34
2017-03-01T14:43:40.026Z,9.18
2017-03-01T14:44:20.442Z,9.31
2017-03-01T14:45:00.885Z,9.28
2017-03-01T14:45:41.309Z,9.24
2017-03-01T14:46:22.286Z,9.18
2017-03-01T14:47:02.746Z,9.28
2017-03-01T14:47:43.142Z,9.23
2017-03-01T14:48:23.551Z,9.06
2017-03-01T14:49:04.001Z,9.04
2017-03-01T14:49:44.453Z,9.06
2017-03-01T14:50:24.871Z,9.02
2017-03-01T14:51:05.314Z,8.97
2017-03-01T14:51:45.782Z,9.02
2017-03-01T14:52:26.208Z,8.9
2017-03-01T14:53:06.656Z,8.88
2017-03-01T14:53:47.116Z,8.83
2017-03-01T14:54:27.569Z,8.91
2017-03-01T14:55:07.992Z,8.68
2017-03-01T14:55:48.426Z,8.62
2017-03-01T14:56:28.843Z,8.79
2017-03-01T14:57:09.262Z,8.69
2017-03-01T14:57:49.709Z,8.57
2017-03-01T14:58:30.157Z,8.54
2017-03-01T14:59:10.618Z,8.54
2017-03-01T14:59:51.086Z,8.44
2017-03-01T15:00:31.514Z,8.5
2017-03-01T15:01:11.975Z,8.39
2017-03-01T15:01:52.402Z,8.51
2017-03-01T15:02:32.807Z,8.45
2017-03-01T15:03:13.194Z,8.45
2017-03-01T15:03:53.620Z,8.33
2017-03-01T15:04:34.059Z,8.32
2017-03-01T15:05:14.535Z,8.2
2017-03-01T15:05:55.019Z,8.25
2017-03-01T15:06:35.457Z,8.17
2017-03-01T15:07:15.913Z,8.25
2017-03-01T15:07:56.368Z,8.18
2017-03-01T15:08:36.825Z,8.18
2017-03-01T15:09:17.256Z,8.28
2017-03-01T15:09:57.717Z,8.26
2017-03-01T15:10:38.169Z,8.15
2017-03-01T15:11:18.620Z,8.14
2017-03-01T15:11:59.095Z,8.07
2017-03-01T15:12:39.554Z,8.12
2017-03-01T15:13:19.991Z,8.12
2017-03-01T15:14:00.452Z,8.15
2017-03-01T15:14:40.847Z,8.15
2017-03-01T15:15:21.301Z,8.12
2017-03-01T15:16:01.723Z,8.2
2017-03-01T15:16:42.174Z,8.25
2017-03-01T15:17:22.626Z,8.3
2017-03-01T15:18:03.067Z,8.17
2017-03-01T15:18:43.517Z,8.28
2017-03-01T15:19:23.935Z,8.17
2017-03-01T15:20:04.446Z,8.18
2017-03-01T15:20:44.902Z,8.26
2017-03-01T15:21:25.340Z,8.25
2017-03-01T15:22:05.799Z,8.17
2017-03-01T15:22:46.267Z,8.14
2017-03-01T15:23:26.736Z,8.18
2017-03-01T15:24:07.195Z,8.12
2017-03-01T15:24:47.638Z,8.17
2017-03-01T15:25:28.078Z,8.14
2017-03-01T15:26:08.509Z,8.18
2017-03-01T15:26:48.989Z,8.18
2017-03-01T15:27:29.432Z,8.04
2017-03-01T15:28:09.871Z,8.07
2017-03-01T15:28:50.308Z,8.14
2017-03-01T15:29:30.735Z,8.21
2017-03-01T15:30:11.185Z,8.2
2017-03-01T15:30:51.648Z,8.1
2017-03-01T15:31:32.064Z,8.07
2017-03-01T15:32:12.554Z,8.17
2017-03-01T15:32:52.982Z,8.22
2017-03-01T15:33:33.423Z,8.18
2017-03-01T15:34:13.916Z,8.14
2017-03-01T15:36:01.385Z,8.15
2017-03-01T15:36:41.815Z,8.08
2017-03-01T15:37:22.218Z,8.02
2017-03-01T15:38:02.636Z,8.07
2017-03-01T15:38:43.099Z,8.04
2017-03-01T15:39:23.574Z,8.11
2017-03-01T15:40:04.070Z,8.08
2017-03-01T15:40:44.513Z,8.2
2017-03-01T15:41:24.906Z,8.08
2017-03-01T15:42:05.417Z,8.14
2017-03-01T15:42:45.826Z,8.04
2017-03-01T15:43:26.213Z,8.07
2017-03-01T15:44:06.622Z,8.04
2017-03-01T15:44:47.147Z,8.02
2017-03-01T15:45:27.606Z,8.07
2017-03-01T15:46:08.171Z,8.11
2017-03-01T15:46:48.619Z,7.96
2017-03-01T15:47:29.020Z,8.02
2017-03-01T15:48:09.471Z,8.03
2017-03-01T15:48:49.888Z,8.04
2017-03-01T15:49:30.383Z,8.03
2017-03-01T15:50:10.804Z,7.96
2017-03-01T15:50:51.206Z,8
2017-03-01T15:51:31.608Z,8.02
2017-03-01T15:52:12.002Z,8.07
2017-03-01T15:52:52.435Z,8.08
2017-03-01T15:53:32.878Z,7.93
2017-03-01T15:54:13.295Z,8.07
2017-03-01T15:54:53.669Z,8.03
2017-03-01T15:55:34.144Z,8.15
2017-03-01T15:56:14.605Z,8.18
2017-03-01T15:56:55.018Z,8.08
2017-03-01T15:57:35.420Z,8.04
2017-03-01T15:58:15.898Z,8.15
2017-03-01T15:58:56.415Z,8.04
2017-03-01T15:59:37.098Z,8.08
2017-03-01T16:00:17.492Z,7.96
2017-03-01T16:00:57.922Z,7.99
2017-03-01T16:01:38.364Z,7.94
2017-03-01T16:02:18.757Z,7.99
2017-03-01T16:02:59.224Z,8.07
2017-03-01T16:03:39.647Z,8.1
2017-03-01T16:05:52.332Z,8.08
2017-03-01T16:06:32.761Z,8.03
2017-03-01T16:07:13.165Z,8.17
2017-03-01T16:07:53.599Z,8.04
2017-03-01T16:08:34.011Z,8.08
2017-03-01T16:09:14.461Z,7.97
2017-03-01T16:09:54.890Z,8.04
2017-03-01T16:10:35.317Z,8.17
2017-03-01T16:11:15.782Z,8.04
2017-03-01T16:11:56.178Z,8.1
2017-03-01T16:12:36.629Z,8.1
2017-03-01T16:13:17.127Z,8.07
2017-03-01T16:13:57.519Z,8.08
2017-03-01T16:14:37.963Z,8.12
2017-03-01T16:15:18.395Z,8.1
2017-03-01T16:15:58.828Z,8.08
2017-03-01T16:16:39.276Z,8
2017-03-01T16:17:19.735Z,8.04
2017-03-01T16:18:00.161Z,8.08
2017-03-01T16:18:40.609Z,8.04
2017-03-01T16:19:21.010Z,8.03
2017-03-01T16:20:01.449Z,8.08
2017-03-01T16:20:41.848Z,8.11
2017-03-01T16:21:22.309Z,8.02
2017-03-01T16:22:03.206Z,8.04
2017-03-01T16:22:43.610Z,8.07
2017-03-01T16:23:24.088Z,8.17
2017-03-01T16:24:04.636Z,8.07
2017-03-01T16:24:45.069Z,8.1
2017-03-01T16:25:25.623Z,8.1
2017-03-01T16:26:06.162Z,8.07
2017-03-01T16:26:46.620Z,8.08
2017-03-01T16:27:27.025Z,8.1
2017-03-01T16:28:07.459Z,8.08
2017-03-01T16:28:47.912Z,7.94
2017-03-01T16:29:28.353Z,7.99
2017-03-01T16:30:08.766Z,7.97
2017-03-01T16:30:49.174Z,7.94
2017-03-01T16:31:29.669Z,7.96
2017-03-01T16:32:10.079Z,7.9
2017-03-01T16:32:50.480Z,8.04
2017-03-01T16:33:30.932Z,7.94
2017-03-01T16:34:11.353Z,7.94
2017-03-01T16:34:51.749Z,7.92
2017-03-01T16:35:32.183Z,7.99
2017-03-01T16:36:12.558Z,7.94
2017-03-01T16:36:52.978Z,7.96
2017-03-01T16:37:33.393Z,7.93
2017-03-01T16:39:31.003Z,7.99
2017-03-01T16:40:11.453Z,7.93
2017-03-01T16:40:51.830Z,7.94
2017-03-01T16:41:32.256Z,7.93
2017-03-01T16:42:12.645Z,7.9
2017-03-01T16:42:53.058Z,7.85
2017-03-01T16:43:33.469Z,7.84
2017-03-01T16:44:13.905Z,7.82
2017-03-01T16:46:11.456Z,7.89
2017-03-01T16:46:51.895Z,7.85
2017-03-01T16:47:32.326Z,7.94
2017-03-01T16:48:12.745Z,7.82
2017-03-01T16:48:53.143Z,7.87
2017-03-01T16:49:33.553Z,7.87
2017-03-01T16:50:13.953Z,7.85
2017-03-01T16:50:54.350Z,7.87
2017-03-01T16:51:34.730Z,7.87
2017-03-01T16:52:15.115Z,7.85
2017-03-01T16:53:52.514Z,7.87
2017-03-01T16:54:32.885Z,7.85
2017-03-01T16:55:13.330Z,7.79
2017-03-01T16:55:53.779Z,7.84
2017-03-01T16:56:34.209Z,7.84
2017-03-01T16:57:14.631Z,7.82
2017-03-01T16:57:55.538Z,7.85
2017-03-01T16:58:35.711Z,7.82
2017-03-01T16:59:16.130Z,7.89
2017-03-01T16:59:56.541Z,7.84
2017-03-01T17:00:36.936Z,7.84
2017-03-01T17:01:17.306Z,7.78
2017-03-01T17:01:57.728Z,7.87
2017-03-01T17:02:38.123Z,7.82
2017-03-01T17:03:18.503Z,7.78
2017-03-01T17:03:58.888Z,7.85
2017-03-01T17:04:39.275Z,7.78
2017-03-01T17:05:19.764Z,7.78
2017-03-01T17:06:00.210Z,7.81
2017-03-01T17:06:40.619Z,7.87
2017-03-01T17:07:21.007Z,7.82
2017-03-01T17:08:01.444Z,7.79
2017-03-01T17:08:41.826Z,7.82
2017-03-01T17:09:22.245Z,7.78
2017-03-01T17:10:02.714Z,7.78
2017-03-01T17:10:43.088Z,7.79
2017-03-01T17:11:23.527Z,7.77
2017-03-01T17:12:03.941Z,7.81
2017-03-01T17:12:44.327Z,7.75
2017-03-01T17:13:24.729Z,7.87
2017-03-01T17:14:05.146Z,7.79
2017-03-01T17:14:45.541Z,7.79
2017-03-01T17:15:25.959Z,7.78
2017-03-01T17:16:06.339Z,7.78
2017-03-01T17:16:46.712Z,7.81
2017-03-01T17:17:27.146Z,7.77
2017-03-01T17:18:07.547Z,7.78
2017-03-01T17:18:47.979Z,7.79
2017-03-01T17:19:28.392Z,7.72
2017-03-01T17:20:08.800Z,7.66
2017-03-01T17:20:49.207Z,7.74
2017-03-01T17:21:29.581Z,7.74
2017-03-01T17:23:06.941Z,7.77
2017-03-01T17:23:47.395Z,7.71
2017-03-01T17:24:27.840Z,7.74
2017-03-01T17:25:08.306Z,7.66
2017-03-01T17:25:48.754Z,7.72
2017-03-01T17:26:29.169Z,7.71
2017-03-01T17:27:09.625Z,7.75
2017-03-01T17:27:50.042Z,7.69
2017-03-01T17:28:30.452Z,7.66
2017-03-01T17:29:10.902Z,7.75
2017-03-01T17:29:51.326Z,7.74
2017-03-01T17:30:31.762Z,7.62
2017-03-01T17:31:12.208Z,7.71
2017-03-01T17:31:52.637Z,7.74
2017-03-01T17:32:33.070Z,7.67
2017-03-01T17:33:13.524Z,7.59
2017-03-01T17:33:53.951Z,7.71
2017-03-01T17:34:34.381Z,7.71
2017-03-01T17:35:14.790Z,7.58
2017-03-01T17:35:55.227Z,7.59
2017-03-01T17:36:35.665Z,7.71
2017-03-01T17:37:16.108Z,7.59
2017-03-01T17:37:56.559Z,7.72
2017-03-01T17:38:37.003Z,7.59
2017-03-01T17:39:17.414Z,7.59
2017-03-01T17:39:57.862Z,7.59
2017-03-01T17:40:38.289Z,7.67
2017-03-01T17:41:18.717Z,7.62
2017-03-01T17:41:59.158Z,7.72
2017-03-01T17:42:39.596Z,7.62
2017-03-01T17:43:20.050Z,7.67
2017-03-01T17:44:00.514Z,7.6
2017-03-01T17:44:40.930Z,7.71
2017-03-01T17:45:21.405Z,7.72
2017-03-01T17:46:01.820Z,7.62
2017-03-01T17:46:42.238Z,7.63
2017-03-01T17:47:22.667Z,7.58
2017-03-01T17:48:03.111Z,7.59
2017-03-01T17:48:43.537Z,7.62
2017-03-01T17:49:23.975Z,7.67
2017-03-01T17:50:04.408Z,7.56
2017-03-01T17:50:44.852Z,7.56
2017-03-01T17:51:25.286Z,7.58
2017-03-01T17:52:05.738Z,7.62
2017-03-01T17:52:46.159Z,7.58
2017-03-01T17:53:26.610Z,7.63
2017-03-01T17:54:07.019Z,7.62
2017-03-01T17:54:47.469Z,7.63
2017-03-01T17:55:27.904Z,7.55
2017-03-01T17:56:08.344Z,7.59
2017-03-01T17:56:48.802Z,7.59
2017-03-01T17:57:29.264Z,7.62
2017-03-01T17:58:09.691Z,7.66
2017-03-01T17:58:50.135Z,7.67
2017-03-01T17:59:30.572Z,7.62
2017-03-01T18:00:11.011Z,7.62
2017-03-01T18:00:51.458Z,7.62
2017-03-01T18:01:31.889Z,7.59
2017-03-01T18:02:12.332Z,7.59
2017-03-01T18:02:52.758Z,7.6
2017-03-01T18:03:33.195Z,7.55
2017-03-01T18:04:13.631Z,7.62
2017-03-01T18:04:54.060Z,7.58
2017-03-01T18:05:34.496Z,7.56
2017-03-01T18:06:14.954Z,7.62
2017-03-01T18:06:55.408Z,7.58
2017-03-01T18:07:35.795Z,7.62
2017-03-01T18:08:16.231Z,7.56
2017-03-01T18:08:56.666Z,7.66
2017-03-01T18:09:37.100Z,7.63
2017-03-01T18:10:17.503Z,7.59
2017-03-01T18:10:57.922Z,7.59
2017-03-01T18:11:38.368Z,7.62
2017-03-01T18:12:18.814Z,7.59
2017-03-01T18:12:59.246Z,7.58
2017-03-01T18:13:39.665Z,7.6
2017-03-01T18:14:20.104Z,7.59
2017-03-01T18:15:00.510Z,7.66
2017-03-01T18:15:40.940Z,7.62
2017-03-01T18:16:21.354Z,7.66
2017-03-01T18:17:01.759Z,7.55
2017-03-01T18:17:42.172Z,7.58
2017-03-01T18:18:22.554Z,7.6
2017-03-01T18:19:02.973Z,7.59
2017-03-01T18:19:43.353Z,7.62
2017-03-01T18:20:23.773Z,7.58
2017-03-01T18:21:04.185Z,7.58
2017-03-01T18:21:44.636Z,7.6
2017-03-01T18:22:25.087Z,7.59
2017-03-01T18:23:05.538Z,7.59
2017-03-01T18:23:45.985Z,7.55
2017-03-01T18:24:26.415Z,7.5
2017-03-01T18:25:06.861Z,7.59
2017-03-01T18:25:47.289Z,7.58
2017-03-01T18:26:27.734Z,7.62
2017-03-01T18:27:08.203Z,7.66
2017-03-01T18:27:48.648Z,7.62
2017-03-01T18:28:29.081Z,7.6
2017-03-01T18:29:09.495Z,7.63
2017-03-01T18:29:49.938Z,7.6
2017-03-01T18:30:30.390Z,7.62
2017-03-01T18:31:10.808Z,7.62
2017-03-01T18:31:51.210Z,7.67
2017-03-01T18:32:31.616Z,7.56
2017-03-01T18:33:12.004Z,7.62
2017-03-01T18:33:52.432Z,7.52
2017-03-01T18:34:32.848Z,7.58
2017-03-01T18:35:13.304Z,7.5
2017-03-01T18:35:53.734Z,7.47
2017-03-01T18:36:34.147Z,7.59
2017-03-01T18:37:14.565Z,7.49
2017-03-01T18:37:54.977Z,7.5
2017-03-01T18:38:35.371Z,7.42
2017-03-01T18:39:15.790Z,7.47
2017-03-01T18:39:56.165Z,7.53
2017-03-01T18:40:36.588Z,7.44
2017-03-01T18:41:17.003Z,7.47
2017-03-01T18:41:57.449Z,7.38
2017-03-01T18:43:54.990Z,7.38
2017-03-01T18:45:32.295Z,7.42
2017-03-01T18:46:12.729Z,7.38
2017-03-01T18:46:53.163Z,7.41
2017-03-01T18:47:33.615Z,7.26
2017-03-01T18:48:14.048Z,7.32
2017-03-01T18:48:54.474Z,7.34
2017-03-01T18:49:34.886Z,7.37
2017-03-01T18:50:15.303Z,7.34
2017-03-01T18:50:55.689Z,7.35
2017-03-01T18:51:36.112Z,7.31
2017-03-01T18:52:16.608Z,7.27
2017-03-01T18:52:57.018Z,7.32
2017-03-01T18:53:37.497Z,7.29
2017-03-01T18:54:17.970Z,7.31
2017-03-01T18:54:58.416Z,7.22
2017-03-01T18:55:38.860Z,7.31
2017-03-01T18:56:19.301Z,7.26
2017-03-01T18:56:59.732Z,7.24
2017-03-01T18:57:40.176Z,7.23
2017-03-01T18:58:20.613Z,7.26
2017-03-01T18:59:01.058Z,7.26
2017-03-01T18:59:41.501Z,7.32
2017-03-01T19:00:21.932Z,7.19
2017-03-01T19:01:02.357Z,7.24
2017-03-01T19:01:42.773Z,7.24
2017-03-01T19:02:23.154Z,7.22
2017-03-01T19:03:03.583Z,7.23
2017-03-01T19:03:44.038Z,7.19
2017-03-01T19:04:24.464Z,7.19
2017-03-01T19:05:04.910Z,7.24
2017-03-01T19:05:45.369Z,7.22
2017-03-01T19:06:25.804Z,7.26
2017-03-01T19:07:06.234Z,7.19
2017-03-01T19:07:46.643Z,7.15
2017-03-01T19:08:27.077Z,7.29
2017-03-01T19:09:07.516Z,7.22
2017-03-01T19:09:47.944Z,7.24
2017-03-01T19:10:28.376Z,7.19
2017-03-01T19:11:08.824Z,7.26
2017-03-01T19:11:49.263Z,7.26
2017-03-01T19:12:29.683Z,7.31
2017-03-01T19:13:10.126Z,7.24
2017-03-01T19:13:50.573Z,7.26
2017-03-01T19:14:30.986Z,7.26
2017-03-01T19:15:11.404Z,7.19
2017-03-01T19:15:51.836Z,7.2
2017-03-01T19:16:32.263Z,7.2
2017-03-01T19:17:12.699Z,7.23
2017-03-01T19:17:53.120Z,7.22
2017-03-01T19:18:33.534Z,7.2
2017-03-01T19:20:10.869Z,7.22
2017-03-01T19:20:51.384Z,7.23
2017-03-01T19:21:31.831Z,7.16
2017-03-01T19:22:12.296Z,7.31
2017-03-01T19:22:52.704Z,7.23
2017-03-01T19:23:33.141Z,7.26
2017-03-01T19:24:13.572Z,7.26
2017-03-01T19:24:54.017Z,7.29
2017-03-01T19:25:34.454Z,7.26
2017-03-01T19:26:14.892Z,7.24
2017-03-01T19:26:55.324Z,7.31
2017-03-01T19:27:35.763Z,7.34
2017-03-01T19:28:16.180Z,7.34
2017-03-01T19:28:56.620Z,7.31
2017-03-01T19:29:37.062Z,7.49
2017-03-01T19:30:17.502Z,7.38
2017-03-01T19:30:57.960Z,7.35
2017-03-01T19:31:38.385Z,7.4
2017-03-01T19:32:18.813Z,7.42
2017-03-01T19:32:59.258Z,7.4
2017-03-01T19:33:39.689Z,7.38
2017-03-01T19:34:20.102Z,7.47
2017-03-01T19:35:00.543Z,7.37